sensor_id;sensor_type;location;lat;lon;timestamp;temperature;humidity
5304;DHT22;2674;49.722;10.892;2022-08-19T00:01:46;19.30;99.90
5304;DHT22;2674;49.722;10.892;2022-08-19T00:04:14;19.30;99.90
5304;DHT22;2674;49.722;10.892;2022-08-19T00:06:43;19.30;99.90
5304;DHT22;2674;49.722;10.892;2022-08-19T00:09:12;19.30;99.90
5304;DHT22;2674;49.722;10.892;2022-08-19T00:11:39;19.30;99.90
5304;DHT22;2674;49.722;10.892;2022-08-19T00:14:07;19.30;99.90
5304;DHT22;2674;49.722;10.892;2022-08-19T00:16:34;19.30;99.90
5304;DHT22;2674;49.722;10.892;2022-08-19T00:19:00;19.30;99.90
5304;DHT22;2674;49.722;10.892;2022-08-19T00:21:26;19.30;99.90
5304;DHT22;2674;49.722;10.892;2022-08-19T00:23:54;19.30;99.90
5304;DHT22;2674;49.722;10.892;2022-08-19T00:26:20;19.30;99.90
5304;DHT22;2674;49.722;10.892;2022-08-19T00:28:46;19.30;99.90
5304;DHT22;2674;49.722;10.892;2022-08-19T00:31:12;19.20;99.90
5304;DHT22;2674;49.722;10.892;2022-08-19T00:33:38;19.20;99.90
5304;DHT22;2674;49.722;10.892;2022-08-19T00:36:06;19.20;99.90
5304;DHT22;2674;49.722;10.892;2022-08-19T00:38:33;19.20;99.90
5304;DHT22;2674;49.722;10.892;2022-08-19T00:41:00;19.20;99.90
5304;DHT22;2674;49.722;10.892;2022-08-19T00:43:27;19.10;99.90
5304;DHT22;2674;49.722;10.892;2022-08-19T00:45:53;19.10;99.90
5304;DHT22;2674;49.722;10.892;2022-08-19T00:48:20;19.10;99.90
5304;DHT22;2674;49.722;10.892;2022-08-19T00:50:49;19.10;99.90
5304;DHT22;2674;49.722;10.892;2022-08-19T00:53:20;19.10;99.90
5304;DHT22;2674;49.722;10.892;2022-08-19T00:55:48;19.00;99.90
5304;DHT22;2674;49.722;10.892;2022-08-19T00:58:17;19.00;99.90
5304;DHT22;2674;49.722;10.892;2022-08-19T01:00:46;19.00;99.90
5304;DHT22;2674;49.722;10.892;2022-08-19T01:03:16;19.00;99.90
5304;DHT22;2674;49.722;10.892;2022-08-19T01:05:44;19.00;99.90
5304;DHT22;2674;49.722;10.892;2022-08-19T01:08:11;19.00;99.90
5304;DHT22;2674;49.722;10.892;2022-08-19T01:13:36;19.00;99.90
5304;DHT22;2674;49.722;10.892;2022-08-19T01:16:08;19.10;99.90
5304;DHT22;2674;49.722;10.892;2022-08-19T01:18:41;19.10;99.90
5304;DHT22;2674;49.722;10.892;2022-08-19T01:21:44;19.10;99.90
5304;DHT22;2674;49.722;10.892;2022-08-19T01:24:11;19.10;99.90
5304;DHT22;2674;49.722;10.892;2022-08-19T01:26:43;19.20;99.90
5304;DHT22;2674;49.722;10.892;2022-08-19T01:29:10;19.20;99.90
5304;DHT22;2674;49.722;10.892;2022-08-19T01:31:36;19.20;99.90
5304;DHT22;2674;49.722;10.892;2022-08-19T01:34:03;19.20;99.90
5304;DHT22;2674;49.722;10.892;2022-08-19T01:36:31;19.20;99.90
5304;DHT22;2674;49.722;10.892;2022-08-19T01:38:58;19.30;99.90
5304;DHT22;2674;49.722;10.892;2022-08-19T01:41:25;19.30;99.90
5304;DHT22;2674;49.722;10.892;2022-08-19T01:43:54;19.30;99.90
5304;DHT22;2674;49.722;10.892;2022-08-19T01:46:20;19.30;99.90
5304;DHT22;2674;49.722;10.892;2022-08-19T01:48:46;19.30;99.90
5304;DHT22;2674;49.722;10.892;2022-08-19T01:51:13;19.30;99.90
5304;DHT22;2674;49.722;10.892;2022-08-19T01:53:39;19.40;99.90
5304;DHT22;2674;49.722;10.892;2022-08-19T01:56:08;19.40;99.90
5304;DHT22;2674;49.722;10.892;2022-08-19T01:58:38;19.40;99.90
5304;DHT22;2674;49.722;10.892;2022-08-19T02:01:06;19.40;99.90
5304;DHT22;2674;49.722;10.892;2022-08-19T02:03:32;19.40;99.90
5304;DHT22;2674;49.722;10.892;2022-08-19T02:06:01;19.40;99.90
5304;DHT22;2674;49.722;10.892;2022-08-19T02:08:29;19.40;99.90
5304;DHT22;2674;49.722;10.892;2022-08-19T02:10:56;19.40;99.90
5304;DHT22;2674;49.722;10.892;2022-08-19T02:13:23;19.40;99.90
5304;DHT22;2674;49.722;10.892;2022-08-19T02:15:49;19.40;99.90
5304;DHT22;2674;49.722;10.892;2022-08-19T02:18:16;19.40;99.90
5304;DHT22;2674;49.722;10.892;2022-08-19T02:20:42;19.40;99.90
5304;DHT22;2674;49.722;10.892;2022-08-19T02:23:09;19.40;99.90
5304;DHT22;2674;49.722;10.892;2022-08-19T02:25:36;19.30;99.90
5304;DHT22;2674;49.722;10.892;2022-08-19T02:28:02;19.30;99.90
5304;DHT22;2674;49.722;10.892;2022-08-19T02:30:28;19.30;99.90
5304;DHT22;2674;49.722;10.892;2022-08-19T02:32:54;19.30;99.90
5304;DHT22;2674;49.722;10.892;2022-08-19T02:35:20;19.30;99.90
5304;DHT22;2674;49.722;10.892;2022-08-19T02:37:46;19.30;99.90
5304;DHT22;2674;49.722;10.892;2022-08-19T02:40:32;19.40;99.90
5304;DHT22;2674;49.722;10.892;2022-08-19T02:43:06;19.30;99.90
5304;DHT22;2674;49.722;10.892;2022-08-19T02:45:37;19.30;99.90
5304;DHT22;2674;49.722;10.892;2022-08-19T02:48:04;19.20;99.90
5304;DHT22;2674;49.722;10.892;2022-08-19T02:50:31;19.10;99.90
5304;DHT22;2674;49.722;10.892;2022-08-19T02:52:57;19.10;99.90
5304;DHT22;2674;49.722;10.892;2022-08-19T02:55:23;19.10;99.90
5304;DHT22;2674;49.722;10.892;2022-08-19T02:57:49;19.10;99.90
5304;DHT22;2674;49.722;10.892;2022-08-19T03:00:15;19.10;99.90
5304;DHT22;2674;49.722;10.892;2022-08-19T03:02:42;19.10;99.90
5304;DHT22;2674;49.722;10.892;2022-08-19T03:05:10;19.10;99.90
5304;DHT22;2674;49.722;10.892;2022-08-19T03:07:36;19.10;99.90
5304;DHT22;2674;49.722;10.892;2022-08-19T03:10:03;19.10;99.90
5304;DHT22;2674;49.722;10.892;2022-08-19T03:12:29;19.10;99.90
5304;DHT22;2674;49.722;10.892;2022-08-19T03:14:55;19.10;99.90
5304;DHT22;2674;49.722;10.892;2022-08-19T03:17:21;19.10;99.90
5304;DHT22;2674;49.722;10.892;2022-08-19T03:19:47;19.10;99.90
5304;DHT22;2674;49.722;10.892;2022-08-19T03:22:13;19.10;99.90
5304;DHT22;2674;49.722;10.892;2022-08-19T03:24:39;19.20;99.90
5304;DHT22;2674;49.722;10.892;2022-08-19T03:27:05;19.20;99.90
5304;DHT22;2674;49.722;10.892;2022-08-19T03:29:32;19.20;99.90
5304;DHT22;2674;49.722;10.892;2022-08-19T03:31:59;19.20;99.90
5304;DHT22;2674;49.722;10.892;2022-08-19T03:34:29;19.20;99.90
5304;DHT22;2674;49.722;10.892;2022-08-19T03:36:58;19.20;99.90
5304;DHT22;2674;49.722;10.892;2022-08-19T03:39:26;19.20;99.90
5304;DHT22;2674;49.722;10.892;2022-08-19T03:41:54;19.20;99.90
5304;DHT22;2674;49.722;10.892;2022-08-19T03:44:22;19.30;99.90
5304;DHT22;2674;49.722;10.892;2022-08-19T03:46:51;19.30;99.90
5304;DHT22;2674;49.722;10.892;2022-08-19T03:49:18;19.30;99.90
5304;DHT22;2674;49.722;10.892;2022-08-19T03:51:45;19.30;99.90
5304;DHT22;2674;49.722;10.892;2022-08-19T03:54:13;19.20;99.90
5304;DHT22;2674;49.722;10.892;2022-08-19T03:56:42;19.20;99.90
5304;DHT22;2674;49.722;10.892;2022-08-19T03:59:11;19.20;99.90
5304;DHT22;2674;49.722;10.892;2022-08-19T04:01:38;19.20;99.90
5304;DHT22;2674;49.722;10.892;2022-08-19T04:04:04;19.20;99.90
5304;DHT22;2674;49.722;10.892;2022-08-19T04:06:33;19.20;99.90
5304;DHT22;2674;49.722;10.892;2022-08-19T04:09:02;19.10;99.90
5304;DHT22;2674;49.722;10.892;2022-08-19T04:11:33;19.10;99.90
5304;DHT22;2674;49.722;10.892;2022-08-19T04:14:00;19.20;99.90
5304;DHT22;2674;49.722;10.892;2022-08-19T04:16:27;19.10;99.90
5304;DHT22;2674;49.722;10.892;2022-08-19T04:19:00;19.10;99.90
5304;DHT22;2674;49.722;10.892;2022-08-19T04:21:27;19.10;99.90
5304;DHT22;2674;49.722;10.892;2022-08-19T04:23:53;19.00;99.90
5304;DHT22;2674;49.722;10.892;2022-08-19T04:26:31;19.00;99.90
5304;DHT22;2674;49.722;10.892;2022-08-19T04:29:03;19.00;99.90
5304;DHT22;2674;49.722;10.892;2022-08-19T04:31:32;19.00;99.90
5304;DHT22;2674;49.722;10.892;2022-08-19T04:34:05;19.00;99.90
5304;DHT22;2674;49.722;10.892;2022-08-19T04:36:34;19.00;99.90
5304;DHT22;2674;49.722;10.892;2022-08-19T04:39:22;18.90;99.90
5304;DHT22;2674;49.722;10.892;2022-08-19T04:42:08;18.90;99.90
5304;DHT22;2674;49.722;10.892;2022-08-19T04:44:53;19.00;99.90
5304;DHT22;2674;49.722;10.892;2022-08-19T04:47:19;19.00;99.90
5304;DHT22;2674;49.722;10.892;2022-08-19T04:49:45;19.00;99.90
5304;DHT22;2674;49.722;10.892;2022-08-19T04:52:11;19.00;99.90
5304;DHT22;2674;49.722;10.892;2022-08-19T04:54:37;19.00;99.90
5304;DHT22;2674;49.722;10.892;2022-08-19T04:57:04;19.00;99.90
5304;DHT22;2674;49.722;10.892;2022-08-19T04:59:32;19.10;99.90
5304;DHT22;2674;49.722;10.892;2022-08-19T05:01:58;19.10;99.90
5304;DHT22;2674;49.722;10.892;2022-08-19T05:04:24;19.10;99.90
5304;DHT22;2674;49.722;10.892;2022-08-19T05:06:50;19.10;99.90
5304;DHT22;2674;49.722;10.892;2022-08-19T05:09:19;19.10;99.90
5304;DHT22;2674;49.722;10.892;2022-08-19T05:11:47;19.10;99.90
5304;DHT22;2674;49.722;10.892;2022-08-19T05:14:13;19.10;99.90
5304;DHT22;2674;49.722;10.892;2022-08-19T05:16:40;19.10;99.90
5304;DHT22;2674;49.722;10.892;2022-08-19T05:19:06;19.20;99.90
5304;DHT22;2674;49.722;10.892;2022-08-19T05:21:50;19.20;99.90
5304;DHT22;2674;49.722;10.892;2022-08-19T05:24:35;19.30;99.90
5304;DHT22;2674;49.722;10.892;2022-08-19T05:27:01;19.30;99.90
5304;DHT22;2674;49.722;10.892;2022-08-19T05:29:29;19.30;99.90
5304;DHT22;2674;49.722;10.892;2022-08-19T05:31:57;19.30;99.90
5304;DHT22;2674;49.722;10.892;2022-08-19T05:34:25;19.30;99.90
5304;DHT22;2674;49.722;10.892;2022-08-19T05:36:54;19.30;99.90
5304;DHT22;2674;49.722;10.892;2022-08-19T05:39:27;19.30;99.90
5304;DHT22;2674;49.722;10.892;2022-08-19T05:41:57;19.40;99.90
5304;DHT22;2674;49.722;10.892;2022-08-19T05:44:29;19.30;99.90
5304;DHT22;2674;49.722;10.892;2022-08-19T05:46:59;19.30;99.90
5304;DHT22;2674;49.722;10.892;2022-08-19T05:49:26;19.30;99.90
5304;DHT22;2674;49.722;10.892;2022-08-19T05:51:53;19.30;99.90
5304;DHT22;2674;49.722;10.892;2022-08-19T05:54:19;19.20;99.90
5304;DHT22;2674;49.722;10.892;2022-08-19T05:56:45;19.20;99.90
5304;DHT22;2674;49.722;10.892;2022-08-19T05:59:15;19.30;99.90
5304;DHT22;2674;49.722;10.892;2022-08-19T06:01:43;19.30;99.90
5304;DHT22;2674;49.722;10.892;2022-08-19T06:04:11;19.30;99.90
5304;DHT22;2674;49.722;10.892;2022-08-19T06:06:37;19.20;99.90
5304;DHT22;2674;49.722;10.892;2022-08-19T06:09:07;19.20;99.90
5304;DHT22;2674;49.722;10.892;2022-08-19T06:11:45;19.30;99.90
5304;DHT22;2674;49.722;10.892;2022-08-19T06:14:18;19.30;99.90
5304;DHT22;2674;49.722;10.892;2022-08-19T06:16:45;19.30;99.90
5304;DHT22;2674;49.722;10.892;2022-08-19T06:19:16;19.30;99.90
5304;DHT22;2674;49.722;10.892;2022-08-19T06:21:46;19.30;99.90
5304;DHT22;2674;49.722;10.892;2022-08-19T06:24:14;19.40;99.90
5304;DHT22;2674;49.722;10.892;2022-08-19T06:26:44;19.40;99.90
5304;DHT22;2674;49.722;10.892;2022-08-19T06:29:12;19.40;99.90
5304;DHT22;2674;49.722;10.892;2022-08-19T06:31:45;19.40;99.90
5304;DHT22;2674;49.722;10.892;2022-08-19T06:34:12;19.50;99.90
5304;DHT22;2674;49.722;10.892;2022-08-19T06:36:42;19.50;99.90
5304;DHT22;2674;49.722;10.892;2022-08-19T06:39:32;19.50;99.90
5304;DHT22;2674;49.722;10.892;2022-08-19T06:42:00;19.60;99.90
5304;DHT22;2674;49.722;10.892;2022-08-19T06:44:28;19.60;99.90
5304;DHT22;2674;49.722;10.892;2022-08-19T06:46:55;19.70;99.90
5304;DHT22;2674;49.722;10.892;2022-08-19T06:49:22;19.70;99.90
5304;DHT22;2674;49.722;10.892;2022-08-19T06:51:49;19.70;99.90
5304;DHT22;2674;49.722;10.892;2022-08-19T06:54:16;19.70;99.90
5304;DHT22;2674;49.722;10.892;2022-08-19T06:56:43;19.80;99.90
5304;DHT22;2674;49.722;10.892;2022-08-19T06:59:13;19.70;99.90
5304;DHT22;2674;49.722;10.892;2022-08-19T07:01:45;19.70;99.90
5304;DHT22;2674;49.722;10.892;2022-08-19T07:04:14;19.70;99.90
5304;DHT22;2674;49.722;10.892;2022-08-19T07:06:41;19.70;99.90
5304;DHT22;2674;49.722;10.892;2022-08-19T07:09:13;19.70;99.90
5304;DHT22;2674;49.722;10.892;2022-08-19T07:11:46;19.70;99.90
5304;DHT22;2674;49.722;10.892;2022-08-19T07:14:14;19.70;99.90
5304;DHT22;2674;49.722;10.892;2022-08-19T07:16:41;19.70;99.90
5304;DHT22;2674;49.722;10.892;2022-08-19T07:19:07;19.80;99.90
5304;DHT22;2674;49.722;10.892;2022-08-19T07:21:33;19.70;99.90
5304;DHT22;2674;49.722;10.892;2022-08-19T07:24:01;19.70;99.90
5304;DHT22;2674;49.722;10.892;2022-08-19T07:26:33;19.70;99.90
5304;DHT22;2674;49.722;10.892;2022-08-19T07:28:59;19.70;99.90
5304;DHT22;2674;49.722;10.892;2022-08-19T07:31:28;19.60;99.90
5304;DHT22;2674;49.722;10.892;2022-08-19T07:33:55;19.60;99.90
5304;DHT22;2674;49.722;10.892;2022-08-19T07:36:28;19.60;99.90
5304;DHT22;2674;49.722;10.892;2022-08-19T07:38:59;19.50;99.90
5304;DHT22;2674;49.722;10.892;2022-08-19T07:41:27;19.50;99.90
5304;DHT22;2674;49.722;10.892;2022-08-19T07:43:54;19.50;99.90
5304;DHT22;2674;49.722;10.892;2022-08-19T07:46:21;19.50;99.90
5304;DHT22;2674;49.722;10.892;2022-08-19T07:48:48;19.50;99.90
5304;DHT22;2674;49.722;10.892;2022-08-19T07:51:18;19.50;99.90
5304;DHT22;2674;49.722;10.892;2022-08-19T07:53:46;19.50;99.90
5304;DHT22;2674;49.722;10.892;2022-08-19T07:56:13;19.60;99.90
5304;DHT22;2674;49.722;10.892;2022-08-19T07:58:41;19.70;99.90
5304;DHT22;2674;49.722;10.892;2022-08-19T08:01:13;19.70;99.90
5304;DHT22;2674;49.722;10.892;2022-08-19T08:03:40;19.70;99.90
5304;DHT22;2674;49.722;10.892;2022-08-19T08:06:24;19.80;99.90
5304;DHT22;2674;49.722;10.892;2022-08-19T08:09:09;19.90;99.90
5304;DHT22;2674;49.722;10.892;2022-08-19T08:11:49;20.00;99.90
5304;DHT22;2674;49.722;10.892;2022-08-19T08:14:25;20.10;99.90
5304;DHT22;2674;49.722;10.892;2022-08-19T08:16:52;20.10;99.90
5304;DHT22;2674;49.722;10.892;2022-08-19T08:19:23;20.20;99.90
5304;DHT22;2674;49.722;10.892;2022-08-19T08:21:50;20.30;99.90
5304;DHT22;2674;49.722;10.892;2022-08-19T08:24:17;20.30;99.90
5304;DHT22;2674;49.722;10.892;2022-08-19T08:26:44;20.40;99.90
5304;DHT22;2674;49.722;10.892;2022-08-19T08:29:10;20.50;99.90
5304;DHT22;2674;49.722;10.892;2022-08-19T08:31:41;20.60;99.90
5304;DHT22;2674;49.722;10.892;2022-08-19T08:34:08;20.60;99.90
5304;DHT22;2674;49.722;10.892;2022-08-19T08:36:44;20.70;99.90
5304;DHT22;2674;49.722;10.892;2022-08-19T08:39:12;20.80;99.90
5304;DHT22;2674;49.722;10.892;2022-08-19T08:41:53;20.80;99.90
5304;DHT22;2674;49.722;10.892;2022-08-19T08:44:27;20.80;99.90
5304;DHT22;2674;49.722;10.892;2022-08-19T08:47:01;20.90;99.90
5304;DHT22;2674;49.722;10.892;2022-08-19T08:52:06;21.00;99.90
5304;DHT22;2674;49.722;10.892;2022-08-19T08:54:40;21.10;99.90
5304;DHT22;2674;49.722;10.892;2022-08-19T08:57:27;21.10;99.90
5304;DHT22;2674;49.722;10.892;2022-08-19T08:59:56;21.10;99.90
5304;DHT22;2674;49.722;10.892;2022-08-19T09:02:22;21.20;99.90
5304;DHT22;2674;49.722;10.892;2022-08-19T09:04:48;21.10;99.90
5304;DHT22;2674;49.722;10.892;2022-08-19T09:07:35;21.20;99.90
5304;DHT22;2674;49.722;10.892;2022-08-19T09:10:23;21.40;99.90
5304;DHT22;2674;49.722;10.892;2022-08-19T09:15:34;21.60;99.90
5304;DHT22;2674;49.722;10.892;2022-08-19T09:18:03;21.60;99.90
5304;DHT22;2674;49.722;10.892;2022-08-19T09:20:29;21.60;99.90
5304;DHT22;2674;49.722;10.892;2022-08-19T09:22:57;21.70;99.90
5304;DHT22;2674;49.722;10.892;2022-08-19T09:25:25;21.70;99.90
5304;DHT22;2674;49.722;10.892;2022-08-19T09:27:52;21.60;99.90
5304;DHT22;2674;49.722;10.892;2022-08-19T09:30:24;21.50;99.90
5304;DHT22;2674;49.722;10.892;2022-08-19T09:32:51;21.50;99.90
5304;DHT22;2674;49.722;10.892;2022-08-19T09:35:24;21.40;99.90
5304;DHT22;2674;49.722;10.892;2022-08-19T09:37:51;21.40;99.90
5304;DHT22;2674;49.722;10.892;2022-08-19T09:40:18;21.30;99.90
5304;DHT22;2674;49.722;10.892;2022-08-19T09:42:45;21.30;99.90
5304;DHT22;2674;49.722;10.892;2022-08-19T09:45:17;21.30;99.90
5304;DHT22;2674;49.722;10.892;2022-08-19T09:47:43;21.40;99.90
5304;DHT22;2674;49.722;10.892;2022-08-19T09:50:11;21.40;99.90
5304;DHT22;2674;49.722;10.892;2022-08-19T09:52:37;21.50;99.90
5304;DHT22;2674;49.722;10.892;2022-08-19T09:55:05;21.60;99.90
5304;DHT22;2674;49.722;10.892;2022-08-19T09:57:31;21.70;99.90
5304;DHT22;2674;49.722;10.892;2022-08-19T09:59:57;21.80;99.90
5304;DHT22;2674;49.722;10.892;2022-08-19T10:02:24;21.90;99.90
5304;DHT22;2674;49.722;10.892;2022-08-19T10:04:51;22.00;99.90
5304;DHT22;2674;49.722;10.892;2022-08-19T10:07:36;22.00;99.90
5304;DHT22;2674;49.722;10.892;2022-08-19T10:10:04;22.00;99.90
5304;DHT22;2674;49.722;10.892;2022-08-19T10:12:32;22.00;99.90
5304;DHT22;2674;49.722;10.892;2022-08-19T10:14:59;22.10;99.90
5304;DHT22;2674;49.722;10.892;2022-08-19T10:17:26;22.10;99.90
5304;DHT22;2674;49.722;10.892;2022-08-19T10:19:52;22.20;99.90
5304;DHT22;2674;49.722;10.892;2022-08-19T10:22:18;22.30;99.90
5304;DHT22;2674;49.722;10.892;2022-08-19T10:24:47;22.40;99.90
5304;DHT22;2674;49.722;10.892;2022-08-19T10:27:15;22.50;99.90
5304;DHT22;2674;49.722;10.892;2022-08-19T10:29:41;22.60;99.90
5304;DHT22;2674;49.722;10.892;2022-08-19T10:32:08;22.70;99.90
5304;DHT22;2674;49.722;10.892;2022-08-19T10:34:36;22.70;99.90
5304;DHT22;2674;49.722;10.892;2022-08-19T10:37:06;22.60;99.90
5304;DHT22;2674;49.722;10.892;2022-08-19T10:39:34;22.60;99.90
5304;DHT22;2674;49.722;10.892;2022-08-19T10:42:07;22.60;99.90
5304;DHT22;2674;49.722;10.892;2022-08-19T10:44:36;22.60;99.90
5304;DHT22;2674;49.722;10.892;2022-08-19T10:47:03;22.50;99.90
5304;DHT22;2674;49.722;10.892;2022-08-19T10:49:30;22.20;99.90
5304;DHT22;2674;49.722;10.892;2022-08-19T10:51:57;22.20;99.90
5304;DHT22;2674;49.722;10.892;2022-08-19T10:54:42;22.00;99.90
5304;DHT22;2674;49.722;10.892;2022-08-19T10:57:30;22.10;99.90
5304;DHT22;2674;49.722;10.892;2022-08-19T10:59:56;22.00;99.90
5304;DHT22;2674;49.722;10.892;2022-08-19T11:02:22;22.00;99.90
5304;DHT22;2674;49.722;10.892;2022-08-19T11:04:48;21.90;99.90
5304;DHT22;2674;49.722;10.892;2022-08-19T11:07:17;21.80;99.90
5304;DHT22;2674;49.722;10.892;2022-08-19T11:09:43;21.80;99.90
5304;DHT22;2674;49.722;10.892;2022-08-19T11:12:09;21.80;99.90
5304;DHT22;2674;49.722;10.892;2022-08-19T11:14:36;21.80;99.90
5304;DHT22;2674;49.722;10.892;2022-08-19T11:17:04;21.80;99.90
5304;DHT22;2674;49.722;10.892;2022-08-19T11:19:30;21.70;99.90
5304;DHT22;2674;49.722;10.892;2022-08-19T11:21:56;21.70;99.90
5304;DHT22;2674;49.722;10.892;2022-08-19T11:24:24;21.70;99.90
5304;DHT22;2674;49.722;10.892;2022-08-19T11:26:53;21.70;99.90
5304;DHT22;2674;49.722;10.892;2022-08-19T11:29:22;21.80;99.90
5304;DHT22;2674;49.722;10.892;2022-08-19T11:31:53;21.80;99.90
5304;DHT22;2674;49.722;10.892;2022-08-19T11:34:23;21.80;99.90
5304;DHT22;2674;49.722;10.892;2022-08-19T11:57:23;21.70;99.90
5304;DHT22;2674;49.722;10.892;2022-08-19T11:59:50;21.60;99.90
5304;DHT22;2674;49.722;10.892;2022-08-19T12:02:17;21.60;99.90
5304;DHT22;2674;49.722;10.892;2022-08-19T12:04:43;21.60;99.90
5304;DHT22;2674;49.722;10.892;2022-08-19T12:07:08;21.60;99.90
5304;DHT22;2674;49.722;10.892;2022-08-19T12:09:34;21.70;99.90
5304;DHT22;2674;49.722;10.892;2022-08-19T12:12:00;21.70;99.90
5304;DHT22;2674;49.722;10.892;2022-08-19T12:14:28;21.70;99.90
5304;DHT22;2674;49.722;10.892;2022-08-19T12:16:56;21.70;99.90
5304;DHT22;2674;49.722;10.892;2022-08-19T12:19:22;21.60;99.90
5304;DHT22;2674;49.722;10.892;2022-08-19T12:21:49;21.60;99.90
5304;DHT22;2674;49.722;10.892;2022-08-19T12:24:15;21.60;99.90
5304;DHT22;2674;49.722;10.892;2022-08-19T12:26:41;21.60;99.90
5304;DHT22;2674;49.722;10.892;2022-08-19T12:29:07;21.70;99.90
5304;DHT22;2674;49.722;10.892;2022-08-19T12:31:34;21.70;99.90
5304;DHT22;2674;49.722;10.892;2022-08-19T12:34:00;21.70;99.90
5304;DHT22;2674;49.722;10.892;2022-08-19T12:36:26;21.70;99.90
5304;DHT22;2674;49.722;10.892;2022-08-19T12:38:52;21.60;99.90
5304;DHT22;2674;49.722;10.892;2022-08-19T12:41:19;21.50;99.90
5304;DHT22;2674;49.722;10.892;2022-08-19T12:43:47;21.40;99.90
5304;DHT22;2674;49.722;10.892;2022-08-19T12:46:15;21.30;99.90
5304;DHT22;2674;49.722;10.892;2022-08-19T12:48:41;21.30;99.90
5304;DHT22;2674;49.722;10.892;2022-08-19T12:51:09;21.30;99.90
5304;DHT22;2674;49.722;10.892;2022-08-19T12:53:35;21.30;99.90
5304;DHT22;2674;49.722;10.892;2022-08-19T12:56:01;21.40;99.90
5304;DHT22;2674;49.722;10.892;2022-08-19T12:58:28;21.40;99.90
5304;DHT22;2674;49.722;10.892;2022-08-19T13:00:54;21.40;99.90
5304;DHT22;2674;49.722;10.892;2022-08-19T13:03:20;21.40;99.90
5304;DHT22;2674;49.722;10.892;2022-08-19T13:05:50;21.30;99.90
5304;DHT22;2674;49.722;10.892;2022-08-19T13:08:16;21.30;99.90
5304;DHT22;2674;49.722;10.892;2022-08-19T13:10:42;21.20;99.90
5304;DHT22;2674;49.722;10.892;2022-08-19T13:13:09;21.20;99.90
5304;DHT22;2674;49.722;10.892;2022-08-19T13:15:39;21.00;99.90
5304;DHT22;2674;49.722;10.892;2022-08-19T13:18:08;20.80;99.90
5304;DHT22;2674;49.722;10.892;2022-08-19T13:20:35;20.30;99.90
5304;DHT22;2674;49.722;10.892;2022-08-19T13:23:01;19.90;99.90
5304;DHT22;2674;49.722;10.892;2022-08-19T13:25:27;19.70;99.90
5304;DHT22;2674;49.722;10.892;2022-08-19T13:27:53;19.60;99.90
5304;DHT22;2674;49.722;10.892;2022-08-19T13:30:20;19.50;99.90
5304;DHT22;2674;49.722;10.892;2022-08-19T13:33:05;19.40;99.90
5304;DHT22;2674;49.722;10.892;2022-08-19T13:35:47;19.40;99.90
5304;DHT22;2674;49.722;10.892;2022-08-19T13:38:15;19.30;99.90
5304;DHT22;2674;49.722;10.892;2022-08-19T13:40:42;19.30;99.90
5304;DHT22;2674;49.722;10.892;2022-08-19T13:43:08;19.30;99.90
5304;DHT22;2674;49.722;10.892;2022-08-19T13:45:35;19.30;99.90
5304;DHT22;2674;49.722;10.892;2022-08-19T13:48:04;19.40;99.90
5304;DHT22;2674;49.722;10.892;2022-08-19T13:50:38;19.30;99.90
5304;DHT22;2674;49.722;10.892;2022-08-19T13:53:06;19.30;99.90
5304;DHT22;2674;49.722;10.892;2022-08-19T13:55:32;19.30;99.90
5304;DHT22;2674;49.722;10.892;2022-08-19T13:57:59;19.20;99.90
5304;DHT22;2674;49.722;10.892;2022-08-19T14:00:30;19.10;99.90
5304;DHT22;2674;49.722;10.892;2022-08-19T14:02:56;19.00;99.90
5304;DHT22;2674;49.722;10.892;2022-08-19T14:05:24;19.00;99.90
5304;DHT22;2674;49.722;10.892;2022-08-19T14:07:50;19.00;99.90
5304;DHT22;2674;49.722;10.892;2022-08-19T14:10:17;18.90;99.90
5304;DHT22;2674;49.722;10.892;2022-08-19T14:12:43;18.90;99.90
5304;DHT22;2674;49.722;10.892;2022-08-19T14:15:10;18.80;99.90
5304;DHT22;2674;49.722;10.892;2022-08-19T14:17:40;18.80;99.90
5304;DHT22;2674;49.722;10.892;2022-08-19T14:20:08;18.70;99.90
5304;DHT22;2674;49.722;10.892;2022-08-19T14:22:36;18.70;99.90
5304;DHT22;2674;49.722;10.892;2022-08-19T14:25:03;18.60;99.90
5304;DHT22;2674;49.722;10.892;2022-08-19T14:27:33;18.60;99.90
5304;DHT22;2674;49.722;10.892;2022-08-19T14:29:59;18.70;99.90
5304;DHT22;2674;49.722;10.892;2022-08-19T14:32:25;18.60;99.90
5304;DHT22;2674;49.722;10.892;2022-08-19T14:34:53;18.50;99.90
5304;DHT22;2674;49.722;10.892;2022-08-19T14:37:20;18.60;99.90
5304;DHT22;2674;49.722;10.892;2022-08-19T14:39:47;18.70;99.90
5304;DHT22;2674;49.722;10.892;2022-08-19T14:42:14;18.70;99.90
5304;DHT22;2674;49.722;10.892;2022-08-19T14:44:41;18.70;99.90
5304;DHT22;2674;49.722;10.892;2022-08-19T14:47:11;18.70;99.90
5304;DHT22;2674;49.722;10.892;2022-08-19T14:49:37;18.70;99.90
5304;DHT22;2674;49.722;10.892;2022-08-19T14:52:03;18.70;99.90
5304;DHT22;2674;49.722;10.892;2022-08-19T14:54:29;18.70;99.90
5304;DHT22;2674;49.722;10.892;2022-08-19T14:56:56;18.70;99.90
5304;DHT22;2674;49.722;10.892;2022-08-19T14:59:21;18.70;99.90
5304;DHT22;2674;49.722;10.892;2022-08-19T15:01:47;18.80;99.90
5304;DHT22;2674;49.722;10.892;2022-08-19T15:04:13;18.80;99.90
5304;DHT22;2674;49.722;10.892;2022-08-19T15:06:40;18.80;99.90
5304;DHT22;2674;49.722;10.892;2022-08-19T15:09:08;18.80;99.90
5304;DHT22;2674;49.722;10.892;2022-08-19T15:11:35;18.80;99.90
5304;DHT22;2674;49.722;10.892;2022-08-19T15:14:02;18.80;99.90
5304;DHT22;2674;49.722;10.892;2022-08-19T15:16:28;18.80;99.90
5304;DHT22;2674;49.722;10.892;2022-08-19T15:18:56;18.80;99.90
5304;DHT22;2674;49.722;10.892;2022-08-19T15:21:23;18.80;99.90
5304;DHT22;2674;49.722;10.892;2022-08-19T15:23:50;18.80;99.90
5304;DHT22;2674;49.722;10.892;2022-08-19T15:26:19;18.70;99.90
5304;DHT22;2674;49.722;10.892;2022-08-19T15:28:46;18.70;99.90
5304;DHT22;2674;49.722;10.892;2022-08-19T15:31:12;18.70;99.90
5304;DHT22;2674;49.722;10.892;2022-08-19T15:33:45;18.70;99.90
5304;DHT22;2674;49.722;10.892;2022-08-19T15:36:11;18.70;99.90
5304;DHT22;2674;49.722;10.892;2022-08-19T15:38:38;18.60;99.90
5304;DHT22;2674;49.722;10.892;2022-08-19T15:41:05;18.60;99.90
5304;DHT22;2674;49.722;10.892;2022-08-19T15:43:52;18.60;99.90
5304;DHT22;2674;49.722;10.892;2022-08-19T15:46:21;18.60;99.90
5304;DHT22;2674;49.722;10.892;2022-08-19T15:48:50;18.50;99.90
5304;DHT22;2674;49.722;10.892;2022-08-19T15:51:17;18.50;99.90
5304;DHT22;2674;49.722;10.892;2022-08-19T15:53:43;18.50;99.90
5304;DHT22;2674;49.722;10.892;2022-08-19T15:56:10;18.40;99.90
5304;DHT22;2674;49.722;10.892;2022-08-19T15:58:39;18.40;99.90
5304;DHT22;2674;49.722;10.892;2022-08-19T16:01:23;18.40;99.90
5304;DHT22;2674;49.722;10.892;2022-08-19T16:04:08;18.50;99.90
5304;DHT22;2674;49.722;10.892;2022-08-19T16:06:54;18.40;99.90
5304;DHT22;2674;49.722;10.892;2022-08-19T16:09:24;18.30;99.90
5304;DHT22;2674;49.722;10.892;2022-08-19T16:11:50;18.20;99.90
5304;DHT22;2674;49.722;10.892;2022-08-19T16:14:18;18.20;99.90
5304;DHT22;2674;49.722;10.892;2022-08-19T16:16:44;18.20;99.90
5304;DHT22;2674;49.722;10.892;2022-08-19T16:19:13;18.20;99.90
5304;DHT22;2674;49.722;10.892;2022-08-19T16:21:45;18.20;99.90
5304;DHT22;2674;49.722;10.892;2022-08-19T16:24:12;18.30;99.90